sensor_id;sensor_type;location;lat;lon;timestamp;pressure;altitude;pressure_sealevel;temperature;humidity
70488;BME280;57976;48.174;16.370;2022-10-26T21:46:48;100140.42;;;12.82;100.00
70488;BME280;57976;48.174;16.370;2022-10-26T21:48:53;100144.91;;;12.87;100.00
70488;BME280;57976;48.174;16.370;2022-10-26T21:50:59;100149.56;;;12.94;100.00
70488;BME280;57976;48.174;16.370;2022-10-26T21:53:04;100150.81;;;12.98;100.00
70488;BME280;57976;48.174;16.370;2022-10-26T21:55:09;100151.82;;;13.04;100.00
70488;BME280;57976;48.174;16.370;2022-10-26T21:57:14;100148.45;;;13.08;100.00
70488;BME280;57976;48.174;16.370;2022-10-26T21:59:19;100149.02;;;13.13;100.00
70488;BME280;57976;48.174;16.370;2022-10-26T22:01:23;100146.70;;;13.18;100.00
70488;BME280;57976;48.174;16.370;2022-10-26T22:03:28;100146.99;;;13.24;100.00
70488;BME280;57976;48.174;16.370;2022-10-26T22:05:33;100145.18;;;13.29;100.00
70488;BME280;57976;48.174;16.370;2022-10-26T22:07:38;100147.38;;;13.31;100.00
70488;BME280;57976;48.174;16.370;2022-10-26T22:09:42;100144.73;;;13.36;100.00
70488;BME280;57976;48.174;16.370;2022-10-26T22:12:07;100145.34;;;13.43;100.00
70488;BME280;57976;48.174;16.370;2022-10-26T22:14:16;100146.36;;;13.47;100.00
70488;BME280;57976;48.174;16.370;2022-10-26T22:16:22;100148.20;;;13.52;100.00
70488;BME280;57976;48.174;16.370;2022-10-26T22:18:27;100146.27;;;13.57;100.00
70488;BME280;57976;48.174;16.370;2022-10-26T22:20:32;100146.29;;;13.61;100.00
70488;BME280;57976;48.174;16.370;2022-10-26T22:22:37;100145.66;;;13.66;100.00
70488;BME280;57976;48.174;16.370;2022-10-26T22:24:42;100147.48;;;13.71;100.00
70488;BME280;57976;48.174;16.370;2022-10-26T22:26:46;100146.70;;;13.74;100.00
70488;BME280;57976;48.174;16.370;2022-10-26T22:28:52;100147.20;;;13.78;100.00
70488;BME280;57976;48.174;16.370;2022-10-26T22:31:03;100150.44;;;13.81;100.00
70488;BME280;57976;48.174;16.370;2022-10-26T22:33:08;100147.80;;;13.83;100.00
70488;BME280;57976;48.174;16.370;2022-10-26T22:35:12;100145.34;;;13.85;100.00
70488;BME280;57976;48.174;16.370;2022-10-26T22:37:33;100148.32;;;13.84;100.00
70488;BME280;57976;48.174;16.370;2022-10-26T22:39:39;100149.98;;;13.85;100.00
70488;BME280;57976;48.174;16.370;2022-10-26T22:41:44;100156.05;;;13.87;100.00
70488;BME280;57976;48.174;16.370;2022-10-26T22:43:51;100155.91;;;13.90;100.00
70488;BME280;57976;48.174;16.370;2022-10-26T22:46:03;100156.23;;;13.91;100.00
70488;BME280;57976;48.174;16.370;2022-10-26T22:48:08;100158.35;;;13.92;100.00
70488;BME280;57976;48.174;16.370;2022-10-26T22:50:13;100156.38;;;13.95;100.00
70488;BME280;57976;48.174;16.370;2022-10-26T22:52:18;100161.58;;;13.99;100.00
70488;BME280;57976;48.174;16.370;2022-10-26T22:54:23;100157.59;;;14.02;100.00
70488;BME280;57976;48.174;16.370;2022-10-26T22:56:28;100159.45;;;14.05;100.00
70488;BME280;57976;48.174;16.370;2022-10-26T22:58:34;100159.61;;;14.09;100.00
70488;BME280;57976;48.174;16.370;2022-10-26T23:00:39;100163.58;;;14.10;100.00
70488;BME280;57976;48.174;16.370;2022-10-26T23:02:44;100164.73;;;14.13;100.00
70488;BME280;57976;48.174;16.370;2022-10-26T23:04:48;100162.92;;;14.13;100.00
70488;BME280;57976;48.174;16.370;2022-10-26T23:06:53;100160.45;;;14.12;100.00
70488;BME280;57976;48.174;16.370;2022-10-26T23:08:58;100163.96;;;14.14;100.00
70488;BME280;57976;48.174;16.370;2022-10-26T23:11:06;100164.00;;;14.15;100.00
70488;BME280;57976;48.174;16.370;2022-10-26T23:13:11;100168.00;;;14.15;100.00
70488;BME280;57976;48.174;16.370;2022-10-26T23:15:16;100165.23;;;14.12;100.00
70488;BME280;57976;48.174;16.370;2022-10-26T23:17:21;100166.83;;;14.09;100.00
70488;BME280;57976;48.174;16.370;2022-10-26T23:19:25;100170.39;;;14.12;100.00
70488;BME280;57976;48.174;16.370;2022-10-26T23:21:30;100172.73;;;14.16;100.00
70488;BME280;57976;48.174;16.370;2022-10-26T23:23:35;100175.39;;;14.19;100.00
70488;BME280;57976;48.174;16.370;2022-10-26T23:25:40;100174.12;;;14.19;100.00
70488;BME280;57976;48.174;16.370;2022-10-26T23:27:45;100177.02;;;14.17;100.00
70488;BME280;57976;48.174;16.370;2022-10-26T23:29:50;100179.18;;;14.17;100.00
70488;BME280;57976;48.174;16.370;2022-10-26T23:31:54;100181.66;;;14.19;100.00
70488;BME280;57976;48.174;16.370;2022-10-26T23:33:59;100185.00;;;14.19;100.00
70488;BME280;57976;48.174;16.370;2022-10-26T23:36:04;100185.48;;;14.18;100.00
70488;BME280;57976;48.174;16.370;2022-10-26T23:38:09;100183.29;;;14.15;100.00
70488;BME280;57976;48.174;16.370;2022-10-26T23:40:14;100188.15;;;14.10;100.00
70488;BME280;57976;48.174;16.370;2022-10-26T23:42:19;100190.11;;;14.06;100.00
70488;BME280;57976;48.174;16.370;2022-10-26T23:44:23;100189.23;;;14.02;100.00
70488;BME280;57976;48.174;16.370;2022-10-26T23:46:28;100189.81;;;14.01;100.00
70488;BME280;57976;48.174;16.370;2022-10-26T23:48:33;100189.79;;;14.03;100.00
70488;BME280;57976;48.174;16.370;2022-10-26T23:50:37;100190.57;;;14.04;100.00
70488;BME280;57976;48.174;16.370;2022-10-26T23:52:47;100191.86;;;14.01;100.00
70488;BME280;57976;48.174;16.370;2022-10-26T23:54:52;100194.75;;;13.99;100.00
70488;BME280;57976;48.174;16.370;2022-10-26T23:56:57;100196.14;;;13.93;100.00
70488;BME280;57976;48.174;16.370;2022-10-26T23:59:02;100194.39;;;13.89;100.00
